sensor_id;sensor_type;location;lat;lon;timestamp;pressure;altitude;pressure_sealevel;temperature;humidity
64683;BME280;51107;47.652;19.016;2023-02-15T00:00:41;101592.31;;;-0.72;98.85
64683;BME280;51107;47.652;19.016;2023-02-15T00:03:09;101592.50;;;-0.80;99.54
64683;BME280;51107;47.652;19.016;2023-02-15T00:05:38;101595.31;;;-0.53;98.78
64683;BME280;51107;47.652;19.016;2023-02-15T00:08:07;101594.47;;;-0.52;98.06
64683;BME280;51107;47.652;19.016;2023-02-15T00:10:35;101594.84;;;-0.31;98.41
64683;BME280;51107;47.652;19.016;2023-02-15T00:13:03;101590.44;;;-0.25;98.11
64683;BME280;51107;47.652;19.016;2023-02-15T00:15:31;101596.66;;;-0.37;99.00
64683;BME280;51107;47.652;19.016;2023-02-15T00:18:00;101597.81;;;-0.50;98.24
64683;BME280;51107;47.652;19.016;2023-02-15T00:20:29;101607.03;;;-0.41;98.24
64683;BME280;51107;47.652;19.016;2023-02-15T00:22:58;101601.91;;;-0.43;97.73
64683;BME280;51107;47.652;19.016;2023-02-15T00:25:26;101608.91;;;-0.51;97.98
64683;BME280;51107;47.652;19.016;2023-02-15T00:27:54;101603.59;;;-0.42;98.10
64683;BME280;51107;47.652;19.016;2023-02-15T00:30:23;101604.50;;;-0.44;98.79
64683;BME280;51107;47.652;19.016;2023-02-15T00:32:51;101613.13;;;-0.48;98.36
64683;BME280;51107;47.652;19.016;2023-02-15T00:35:20;101601.31;;;-0.54;98.38
64683;BME280;51107;47.652;19.016;2023-02-15T00:37:48;101607.56;;;-0.66;98.85
64683;BME280;51107;47.652;19.016;2023-02-15T00:40:17;101609.94;;;-0.58;98.91
64683;BME280;51107;47.652;19.016;2023-02-15T00:42:45;101609.81;;;-0.52;98.65
64683;BME280;51107;47.652;19.016;2023-02-15T00:45:15;101608.12;;;-0.53;98.79
64683;BME280;51107;47.652;19.016;2023-02-15T00:47:45;101603.28;;;-0.65;98.54
64683;BME280;51107;47.652;19.016;2023-02-15T00:50:13;101608.25;;;-1.00;99.77
64683;BME280;51107;47.652;19.016;2023-02-15T00:52:42;101595.63;;;-1.08;100.00
64683;BME280;51107;47.652;19.016;2023-02-15T00:55:10;101600.47;;;-0.95;100.00
64683;BME280;51107;47.652;19.016;2023-02-15T00:57:38;101601.16;;;-0.87;98.86
64683;BME280;51107;47.652;19.016;2023-02-15T01:00:07;101601.38;;;-0.96;98.69
64683;BME280;51107;47.652;19.016;2023-02-15T01:02:36;101596.22;;;-0.95;98.86
64683;BME280;51107;47.652;19.016;2023-02-15T01:05:05;101595.31;;;-0.94;99.69
64683;BME280;51107;47.652;19.016;2023-02-15T01:07:33;101583.00;;;-0.75;99.94
64683;BME280;51107;47.652;19.016;2023-02-15T01:10:02;101583.78;;;-0.71;99.98
64683;BME280;51107;47.652;19.016;2023-02-15T01:12:33;101586.37;;;-0.73;100.00
64683;BME280;51107;47.652;19.016;2023-02-15T01:15:02;101602.53;;;-0.71;99.71
64683;BME280;51107;47.652;19.016;2023-02-15T01:17:31;101589.78;;;-0.72;99.76
64683;BME280;51107;47.652;19.016;2023-02-15T01:19:59;101590.88;;;-0.84;100.00
64683;BME280;51107;47.652;19.016;2023-02-15T01:22:27;101592.59;;;-0.84;100.00
64683;BME280;51107;47.652;19.016;2023-02-15T01:24:56;101595.87;;;-0.78;100.00
64683;BME280;51107;47.652;19.016;2023-02-15T01:27:24;101594.91;;;-0.74;99.87
64683;BME280;51107;47.652;19.016;2023-02-15T01:29:52;101591.41;;;-0.70;99.78
64683;BME280;51107;47.652;19.016;2023-02-15T01:32:22;101599.28;;;-0.79;99.16
64683;BME280;51107;47.652;19.016;2023-02-15T01:34:51;101593.44;;;-0.86;99.14
64683;BME280;51107;47.652;19.016;2023-02-15T01:37:20;101585.13;;;-0.95;100.00
64683;BME280;51107;47.652;19.016;2023-02-15T01:39:48;101579.84;;;-0.86;100.00
64683;BME280;51107;47.652;19.016;2023-02-15T01:42:22;101581.59;;;-0.88;99.66
64683;BME280;51107;47.652;19.016;2023-02-15T01:45:23;101583.91;;;-0.76;100.00
64683;BME280;51107;47.652;19.016;2023-02-15T01:48:20;101578.53;;;-0.66;99.55
64683;BME280;51107;47.652;19.016;2023-02-15T01:50:58;101582.34;;;-0.84;98.91
64683;BME280;51107;47.652;19.016;2023-02-15T01:53:37;101589.50;;;-0.99;99.48
64683;BME280;51107;47.652;19.016;2023-02-15T01:56:14;101587.00;;;-1.04;100.00
64683;BME280;51107;47.652;19.016;2023-02-15T01:58:46;101585.19;;;-0.98;100.00
64683;BME280;51107;47.652;19.016;2023-02-15T02:01:17;101587.25;;;-1.16;100.00
64683;BME280;51107;47.652;19.016;2023-02-15T02:04:17;101577.09;;;-1.19;100.00
64683;BME280;51107;47.652;19.016;2023-02-15T02:06:47;101576.91;;;-1.10;99.89
64683;BME280;51107;47.652;19.016;2023-02-15T02:09:17;101588.41;;;-1.32;100.00
64683;BME280;51107;47.652;19.016;2023-02-15T02:11:47;101580.62;;;-1.25;100.00
64683;BME280;51107;47.652;19.016;2023-02-15T02:14:16;101583.88;;;-1.16;100.00
64683;BME280;51107;47.652;19.016;2023-02-15T02:34:11;101581.50;;;-1.27;100.00
64683;BME280;51107;47.652;19.016;2023-02-15T02:42:31;101585.00;;;-1.31;100.00
64683;BME280;51107;47.652;19.016;2023-02-15T02:45:09;101587.66;;;-1.36;100.00
64683;BME280;51107;47.652;19.016;2023-02-15T02:47:47;101591.91;;;-1.37;100.00
64683;BME280;51107;47.652;19.016;2023-02-15T02:50:22;101583.34;;;-1.34;100.00
64683;BME280;51107;47.652;19.016;2023-02-15T02:52:53;101576.88;;;-1.52;100.00
64683;BME280;51107;47.652;19.016;2023-02-15T02:55:49;101582.06;;;-1.57;100.00
64683;BME280;51107;47.652;19.016;2023-02-15T02:58:59;101583.41;;;-1.37;100.00
64683;BME280;51107;47.652;19.016;2023-02-15T03:01:28;101576.59;;;-1.38;100.00
64683;BME280;51107;47.652;19.016;2023-02-15T03:04:09;101576.56;;;-1.37;100.00
64683;BME280;51107;47.652;19.016;2023-02-15T03:07:01;101567.50;;;-1.51;100.00
64683;BME280;51107;47.652;19.016;2023-02-15T03:09:41;101576.91;;;-1.54;100.00
64683;BME280;51107;47.652;19.016;2023-02-15T03:12:20;101575.31;;;-1.59;100.00
64683;BME280;51107;47.652;19.016;2023-02-15T03:15:03;101583.06;;;-1.65;100.00
64683;BME280;51107;47.652;19.016;2023-02-15T03:17:35;101590.94;;;-1.78;100.00
64683;BME280;51107;47.652;19.016;2023-02-15T03:20:33;101585.34;;;-1.98;100.00
64683;BME280;51107;47.652;19.016;2023-02-15T03:23:15;101582.06;;;-2.05;100.00
64683;BME280;51107;47.652;19.016;2023-02-15T03:26:00;101578.63;;;-2.04;100.00
64683;BME280;51107;47.652;19.016;2023-02-15T03:28:35;101579.09;;;-1.82;100.00
64683;BME280;51107;47.652;19.016;2023-02-15T03:31:05;101583.19;;;-1.72;100.00
64683;BME280;51107;47.652;19.016;2023-02-15T03:33:39;101569.31;;;-1.58;100.00
64683;BME280;51107;47.652;19.016;2023-02-15T03:38:53;101586.53;;;-1.69;100.00
64683;BME280;51107;47.652;19.016;2023-02-15T03:41:34;101585.75;;;-1.72;100.00
64683;BME280;51107;47.652;19.016;2023-02-15T03:44:11;101594.22;;;-1.68;100.00
64683;BME280;51107;47.652;19.016;2023-02-15T03:46:54;101590.75;;;-1.67;100.00
64683;BME280;51107;47.652;19.016;2023-02-15T03:49:28;101591.56;;;-1.63;100.00
64683;BME280;51107;47.652;19.016;2023-02-15T03:51:59;101568.47;;;-1.59;100.00
64683;BME280;51107;47.652;19.016;2023-02-15T03:54:32;101572.75;;;-1.59;100.00
64683;BME280;51107;47.652;19.016;2023-02-15T03:57:22;101582.66;;;-1.42;100.00
64683;BME280;51107;47.652;19.016;2023-02-15T04:05:51;101575.94;;;-1.48;100.00
64683;BME280;51107;47.652;19.016;2023-02-15T04:08:20;101581.12;;;-1.51;100.00
64683;BME280;51107;47.652;19.016;2023-02-15T04:11:08;101581.12;;;-1.51;100.00
64683;BME280;51107;47.652;19.016;2023-02-15T04:13:37;101574.25;;;-1.47;100.00
64683;BME280;51107;47.652;19.016;2023-02-15T04:16:05;101577.59;;;-1.45;100.00
64683;BME280;51107;47.652;19.016;2023-02-15T04:18:41;101582.84;;;-1.53;100.00
64683;BME280;51107;47.652;19.016;2023-02-15T04:21:30;101583.59;;;-1.48;100.00
64683;BME280;51107;47.652;19.016;2023-02-15T04:24:17;101589.03;;;-1.65;100.00
64683;BME280;51107;47.652;19.016;2023-02-15T04:27:05;101586.37;;;-1.60;100.00
64683;BME280;51107;47.652;19.016;2023-02-15T04:29:34;101589.87;;;-1.64;100.00
64683;BME280;51107;47.652;19.016;2023-02-15T04:32:02;101586.66;;;-1.76;100.00
64683;BME280;51107;47.652;19.016;2023-02-15T04:34:31;101584.84;;;-1.69;100.00
64683;BME280;51107;47.652;19.016;2023-02-15T04:37:00;101583.88;;;-1.62;100.00
64683;BME280;51107;47.652;19.016;2023-02-15T04:39:28;101581.38;;;-1.65;100.00
64683;BME280;51107;47.652;19.016;2023-02-15T04:41:56;101583.06;;;-1.65;100.00
64683;BME280;51107;47.652;19.016;2023-02-15T04:44:25;101587.38;;;-1.67;100.00
64683;BME280;51107;47.652;19.016;2023-02-15T04:46:53;101584.12;;;-1.76;100.00
64683;BME280;51107;47.652;19.016;2023-02-15T04:49:21;101590.88;;;-1.73;100.00
64683;BME280;51107;47.652;19.016;2023-02-15T04:51:50;101592.66;;;-1.78;100.00
64683;BME280;51107;47.652;19.016;2023-02-15T04:54:18;101590.00;;;-1.71;100.00
64683;BME280;51107;47.652;19.016;2023-02-15T04:56:47;101595.81;;;-1.62;100.00
64683;BME280;51107;47.652;19.016;2023-02-15T04:59:15;101599.22;;;-1.63;100.00
64683;BME280;51107;47.652;19.016;2023-02-15T05:01:44;101599.31;;;-1.68;100.00
64683;BME280;51107;47.652;19.016;2023-02-15T05:04:12;101591.56;;;-1.63;100.00
64683;BME280;51107;47.652;19.016;2023-02-15T05:06:42;101597.47;;;-1.60;100.00
64683;BME280;51107;47.652;19.016;2023-02-15T05:09:12;101586.59;;;-1.73;100.00
64683;BME280;51107;47.652;19.016;2023-02-15T05:11:40;101588.31;;;-1.73;100.00
64683;BME280;51107;47.652;19.016;2023-02-15T05:14:09;101597.88;;;-1.83;100.00
64683;BME280;51107;47.652;19.016;2023-02-15T05:16:37;101594.50;;;-1.86;100.00
64683;BME280;51107;47.652;19.016;2023-02-15T05:19:05;101598.81;;;-1.89;100.00
64683;BME280;51107;47.652;19.016;2023-02-15T05:21:34;101600.91;;;-2.14;100.00
64683;BME280;51107;47.652;19.016;2023-02-15T05:24:03;101609.03;;;-1.90;100.00
64683;BME280;51107;47.652;19.016;2023-02-15T05:26:52;101606.34;;;-1.81;100.00
64683;BME280;51107;47.652;19.016;2023-02-15T05:29:38;101610.66;;;-1.83;100.00
64683;BME280;51107;47.652;19.016;2023-02-15T05:32:07;101605.53;;;-1.83;100.00
64683;BME280;51107;47.652;19.016;2023-02-15T05:34:36;101610.66;;;-1.86;100.00
64683;BME280;51107;47.652;19.016;2023-02-15T05:37:04;101613.25;;;-1.88;100.00
64683;BME280;51107;47.652;19.016;2023-02-15T05:39:33;101617.53;;;-1.88;100.00
64683;BME280;51107;47.652;19.016;2023-02-15T05:42:01;101614.19;;;-1.93;100.00
64683;BME280;51107;47.652;19.016;2023-02-15T05:44:29;101619.41;;;-1.99;100.00
64683;BME280;51107;47.652;19.016;2023-02-15T05:46:58;101623.66;;;-1.98;100.00
64683;BME280;51107;47.652;19.016;2023-02-15T05:49:26;101626.16;;;-1.95;100.00
64683;BME280;51107;47.652;19.016;2023-02-15T05:51:55;101623.63;;;-1.95;100.00
64683;BME280;51107;47.652;19.016;2023-02-15T05:54:23;101629.53;;;-1.93;100.00
64683;BME280;51107;47.652;19.016;2023-02-15T05:56:51;101633.87;;;-2.00;100.00
64683;BME280;51107;47.652;19.016;2023-02-15T05:59:20;101617.84;;;-2.07;100.00
64683;BME280;51107;47.652;19.016;2023-02-15T06:01:48;101629.84;;;-2.13;100.00
64683;BME280;51107;47.652;19.016;2023-02-15T06:04:17;101634.81;;;-2.02;100.00
64683;BME280;51107;47.652;19.016;2023-02-15T06:06:45;101634.75;;;-1.99;100.00
64683;BME280;51107;47.652;19.016;2023-02-15T06:09:14;101631.28;;;-1.95;100.00
64683;BME280;51107;47.652;19.016;2023-02-15T06:11:42;101643.16;;;-1.93;100.00
64683;BME280;51107;47.652;19.016;2023-02-15T06:14:11;101640.66;;;-1.97;100.00
64683;BME280;51107;47.652;19.016;2023-02-15T06:16:39;101639.84;;;-1.99;100.00
64683;BME280;51107;47.652;19.016;2023-02-15T06:19:07;101629.69;;;-2.02;100.00
64683;BME280;51107;47.652;19.016;2023-02-15T06:21:36;101631.31;;;-2.00;100.00
64683;BME280;51107;47.652;19.016;2023-02-15T06:24:04;101629.69;;;-2.02;100.00
64683;BME280;51107;47.652;19.016;2023-02-15T06:26:32;101641.62;;;-2.05;100.00
64683;BME280;51107;47.652;19.016;2023-02-15T06:29:01;101642.34;;;-1.96;100.00
64683;BME280;51107;47.652;19.016;2023-02-15T06:31:29;101639.84;;;-1.99;100.00
64683;BME280;51107;47.652;19.016;2023-02-15T06:33:58;101643.13;;;-1.91;100.00
64683;BME280;51107;47.652;19.016;2023-02-15T06:36:29;101645.19;;;-1.62;100.00
64683;BME280;51107;47.652;19.016;2023-02-15T06:38:58;101643.13;;;-1.41;100.00
64683;BME280;51107;47.652;19.016;2023-02-15T06:41:26;101657.53;;;-1.35;100.00
64683;BME280;51107;47.652;19.016;2023-02-15T06:43:55;101650.81;;;-0.96;100.00
64683;BME280;51107;47.652;19.016;2023-02-15T06:46:23;101656.09;;;-0.61;98.60
64683;BME280;51107;47.652;19.016;2023-02-15T06:48:51;101649.88;;;-0.49;97.56
64683;BME280;51107;47.652;19.016;2023-02-15T06:51:20;101646.72;;;-0.62;96.24
64683;BME280;51107;47.652;19.016;2023-02-15T06:53:49;101658.81;;;-0.28;94.36
64683;BME280;51107;47.652;19.016;2023-02-15T06:56:17;101659.44;;;-0.19;93.55
64683;BME280;51107;47.652;19.016;2023-02-15T06:58:45;101661.75;;;-0.45;95.54
64683;BME280;51107;47.652;19.016;2023-02-15T07:01:14;101660.91;;;-0.47;95.05
64683;BME280;51107;47.652;19.016;2023-02-15T07:03:43;101658.25;;;-0.43;94.88
64683;BME280;51107;47.652;19.016;2023-02-15T07:06:11;101656.78;;;-0.53;93.70
64683;BME280;51107;47.652;19.016;2023-02-15T07:08:40;101649.50;;;-0.73;93.95
64683;BME280;51107;47.652;19.016;2023-02-15T07:11:08;101658.75;;;-0.66;94.92
64683;BME280;51107;47.652;19.016;2023-02-15T07:13:56;101655.75;;;-0.87;95.70
64683;BME280;51107;47.652;19.016;2023-02-15T07:16:24;101655.56;;;-0.76;97.01
64683;BME280;51107;47.652;19.016;2023-02-15T07:18:53;101651.50;;;-0.45;96.63
64683;BME280;51107;47.652;19.016;2023-02-15T07:21:22;101669.81;;;-0.25;96.72
64683;BME280;51107;47.652;19.016;2023-02-15T07:23:50;101668.16;;;-0.27;97.50
64683;BME280;51107;47.652;19.016;2023-02-15T07:26:18;101655.13;;;-0.18;97.13
64683;BME280;51107;47.652;19.016;2023-02-15T07:28:47;101658.44;;;-0.13;98.14
64683;BME280;51107;47.652;19.016;2023-02-15T07:31:15;101661.53;;;0.02;98.11
64683;BME280;51107;47.652;19.016;2023-02-15T07:33:44;101645.12;;;0.09;95.79
64683;BME280;51107;47.652;19.016;2023-02-15T07:36:12;101641.16;;;0.31;95.85
64683;BME280;51107;47.652;19.016;2023-02-15T07:38:41;101654.00;;;0.30;95.77
64683;BME280;51107;47.652;19.016;2023-02-15T07:41:12;101651.56;;;0.25;95.09
64683;BME280;51107;47.652;19.016;2023-02-15T07:43:43;101647.66;;;0.45;95.07
64683;BME280;51107;47.652;19.016;2023-02-15T07:46:14;101636.13;;;0.61;94.59
64683;BME280;51107;47.652;19.016;2023-02-15T07:48:44;101650.09;;;0.82;93.50
64683;BME280;51107;47.652;19.016;2023-02-15T07:51:13;101649.94;;;0.89;92.21
64683;BME280;51107;47.652;19.016;2023-02-15T07:53:42;101642.63;;;1.06;92.38
64683;BME280;51107;47.652;19.016;2023-02-15T07:56:12;101644.84;;;1.17;91.19
64683;BME280;51107;47.652;19.016;2023-02-15T07:58:41;101646.75;;;1.40;91.63
64683;BME280;51107;47.652;19.016;2023-02-15T08:01:33;101641.03;;;1.60;91.46
64683;BME280;51107;47.652;19.016;2023-02-15T08:04:05;101629.19;;;1.83;91.50
64683;BME280;51107;47.652;19.016;2023-02-15T08:06:35;101636.13;;;2.08;88.17
64683;BME280;51107;47.652;19.016;2023-02-15T08:09:06;101629.34;;;2.05;86.62
64683;BME280;51107;47.652;19.016;2023-02-15T08:11:36;101631.88;;;2.33;87.66
64683;BME280;51107;47.652;19.016;2023-02-15T08:14:14;101632.44;;;2.67;86.28
64683;BME280;51107;47.652;19.016;2023-02-15T08:19:17;101631.41;;;3.20;85.19
64683;BME280;51107;47.652;19.016;2023-02-15T08:21:51;101629.50;;;3.25;83.46
64683;BME280;51107;47.652;19.016;2023-02-15T08:24:22;101628.06;;;3.40;83.97
64683;BME280;51107;47.652;19.016;2023-02-15T08:26:51;101626.37;;;4.05;82.35
64683;BME280;51107;47.652;19.016;2023-02-15T08:29:25;101618.31;;;4.54;79.60
64683;BME280;51107;47.652;19.016;2023-02-15T08:31:59;101624.94;;;5.00;77.44
64683;BME280;51107;47.652;19.016;2023-02-15T08:34:34;101616.06;;;4.47;78.82
64683;BME280;51107;47.652;19.016;2023-02-15T08:37:03;101618.25;;;5.15;77.98
64683;BME280;51107;47.652;19.016;2023-02-15T08:39:31;101622.63;;;5.32;77.54
64683;BME280;51107;47.652;19.016;2023-02-15T08:41:59;101605.47;;;6.04;73.16
64683;BME280;51107;47.652;19.016;2023-02-15T08:44:28;101615.66;;;6.24;71.83
64683;BME280;51107;47.652;19.016;2023-02-15T08:46:57;101603.00;;;6.69;70.09
64683;BME280;51107;47.652;19.016;2023-02-15T08:49:31;101609.56;;;6.25;71.28
64683;BME280;51107;47.652;19.016;2023-02-15T08:51:59;101611.34;;;6.92;70.76
64683;BME280;51107;47.652;19.016;2023-02-15T08:54:28;101606.56;;;7.16;66.26
64683;BME280;51107;47.652;19.016;2023-02-15T08:56:56;101613.69;;;7.28;67.83
64683;BME280;51107;47.652;19.016;2023-02-15T08:59:25;101607.16;;;7.83;66.71
64683;BME280;51107;47.652;19.016;2023-02-15T09:01:58;101613.53;;;7.94;64.53
64683;BME280;51107;47.652;19.016;2023-02-15T09:04:27;101607.78;;;8.33;62.29
64683;BME280;51107;47.652;19.016;2023-02-15T09:06:55;101609.84;;;8.57;62.70
64683;BME280;51107;47.652;19.016;2023-02-15T09:09:23;101597.31;;;8.78;60.76
64683;BME280;51107;47.652;19.016;2023-02-15T09:11:52;101605.03;;;8.51;61.37
64683;BME280;51107;47.652;19.016;2023-02-15T09:14:27;101603.66;;;9.30;59.64
64683;BME280;51107;47.652;19.016;2023-02-15T09:16:55;101605.91;;;9.77;57.80
64683;BME280;51107;47.652;19.016;2023-02-15T09:19:24;101605.00;;;9.91;57.84
64683;BME280;51107;47.652;19.016;2023-02-15T09:21:53;101604.62;;;10.10;58.58
64683;BME280;51107;47.652;19.016;2023-02-15T09:24:22;101605.81;;;10.04;56.80
64683;BME280;51107;47.652;19.016;2023-02-15T09:26:50;101600.03;;;10.26;57.36
64683;BME280;51107;47.652;19.016;2023-02-15T09:29:18;101600.34;;;10.09;56.83
64683;BME280;51107;47.652;19.016;2023-02-15T09:31:49;101600.38;;;9.81;58.65
64683;BME280;51107;47.652;19.016;2023-02-15T09:34:20;101593.28;;;10.62;56.65
64683;BME280;51107;47.652;19.016;2023-02-15T09:36:50;101600.19;;;9.84;56.49
64683;BME280;51107;47.652;19.016;2023-02-15T09:39:25;101584.31;;;10.41;55.00
64683;BME280;51107;47.652;19.016;2023-02-15T09:42:30;101588.00;;;11.01;55.29
64683;BME280;51107;47.652;19.016;2023-02-15T09:45:36;101584.31;;;10.53;54.36
64683;BME280;51107;47.652;19.016;2023-02-15T09:48:14;101589.97;;;10.34;54.14
64683;BME280;51107;47.652;19.016;2023-02-15T09:59:32;101576.59;;;10.65;55.11
64683;BME280;51107;47.652;19.016;2023-02-15T10:02:37;101580.34;;;10.48;53.41
64683;BME280;51107;47.652;19.016;2023-02-15T10:12:09;101562.16;;;11.22;51.33
64683;BME280;51107;47.652;19.016;2023-02-15T10:20:32;101560.00;;;11.87;52.51
64683;BME280;51107;47.652;19.016;2023-02-15T10:28:49;101562.94;;;12.86;48.29
64683;BME280;51107;47.652;19.016;2023-02-15T10:34:25;101562.50;;;11.88;49.98
64683;BME280;51107;47.652;19.016;2023-02-15T10:40:18;101553.53;;;11.33;49.88
64683;BME280;51107;47.652;19.016;2023-02-15T10:45:58;101549.34;;;11.90;50.94
64683;BME280;51107;47.652;19.016;2023-02-15T10:51:46;101536.44;;;11.29;52.21
64683;BME280;51107;47.652;19.016;2023-02-15T11:00:21;101537.03;;;11.56;52.03
64683;BME280;51107;47.652;19.016;2023-02-15T11:03:05;101520.59;;;11.90;51.58
64683;BME280;51107;47.652;19.016;2023-02-15T11:08:29;101511.53;;;11.96;49.90
64683;BME280;51107;47.652;19.016;2023-02-15T11:11:02;101506.81;;;10.44;52.81
64683;BME280;51107;47.652;19.016;2023-02-15T11:13:38;101510.56;;;10.40;54.70
64683;BME280;51107;47.652;19.016;2023-02-15T11:16:22;101507.22;;;11.48;53.65
64683;BME280;51107;47.652;19.016;2023-02-15T11:19:01;101502.53;;;10.80;54.55
64683;BME280;51107;47.652;19.016;2023-02-15T11:21:55;101497.09;;;10.83;52.93
64683;BME280;51107;47.652;19.016;2023-02-15T11:24:29;101482.94;;;10.38;53.04
64683;BME280;51107;47.652;19.016;2023-02-15T11:27:12;101496.00;;;10.62;54.28
64683;BME280;51107;47.652;19.016;2023-02-15T11:32:21;101485.44;;;10.76;53.77
64683;BME280;51107;47.652;19.016;2023-02-15T11:34:59;101480.81;;;10.56;52.40
64683;BME280;51107;47.652;19.016;2023-02-15T11:37:50;101477.63;;;11.00;53.59
64683;BME280;51107;47.652;19.016;2023-02-15T11:42:49;101465.38;;;11.61;51.58
64683;BME280;51107;47.652;19.016;2023-02-15T11:47:56;101467.25;;;11.12;53.47
64683;BME280;51107;47.652;19.016;2023-02-15T11:50:27;101464.66;;;11.12;52.03
64683;BME280;51107;47.652;19.016;2023-02-15T11:52:59;101465.97;;;9.80;53.95
64683;BME280;51107;47.652;19.016;2023-02-15T11:55:28;101464.63;;;9.75;57.22
64683;BME280;51107;47.652;19.016;2023-02-15T11:58:12;101464.44;;;10.53;55.06
64683;BME280;51107;47.652;19.016;2023-02-15T12:00:46;101458.75;;;10.73;56.49
64683;BME280;51107;47.652;19.016;2023-02-15T12:06:04;101454.75;;;9.80;56.60
64683;BME280;51107;47.652;19.016;2023-02-15T12:08:48;101447.50;;;9.45;57.13
64683;BME280;51107;47.652;19.016;2023-02-15T12:11:22;101447.00;;;9.40;57.81
64683;BME280;51107;47.652;19.016;2023-02-15T12:13:59;101447.53;;;9.58;57.15
64683;BME280;51107;47.652;19.016;2023-02-15T12:16:29;101439.00;;;8.75;58.97
64683;BME280;51107;47.652;19.016;2023-02-15T12:19:01;101430.97;;;9.46;58.45
64683;BME280;51107;47.652;19.016;2023-02-15T12:21:33;101438.56;;;9.36;57.98
64683;BME280;51107;47.652;19.016;2023-02-15T12:24:32;101422.34;;;9.58;58.15
64683;BME280;51107;47.652;19.016;2023-02-15T12:27:05;101408.81;;;9.66;56.93
64683;BME280;51107;47.652;19.016;2023-02-15T12:29:50;101418.59;;;9.49;58.36
64683;BME280;51107;47.652;19.016;2023-02-15T12:32:26;101412.56;;;9.49;58.60
64683;BME280;51107;47.652;19.016;2023-02-15T12:35:32;101408.38;;;9.33;57.22
64683;BME280;51107;47.652;19.016;2023-02-15T12:38:21;101414.06;;;9.13;58.42
64683;BME280;51107;47.652;19.016;2023-02-15T12:43:45;101409.66;;;9.00;59.27
64683;BME280;51107;47.652;19.016;2023-02-15T12:46:21;101404.69;;;9.10;58.58
64683;BME280;51107;47.652;19.016;2023-02-15T12:49:18;101396.91;;;9.10;58.54
64683;BME280;51107;47.652;19.016;2023-02-15T12:51:49;101403.06;;;8.82;59.94
64683;BME280;51107;47.652;19.016;2023-02-15T12:54:39;101399.22;;;8.75;60.60
64683;BME280;51107;47.652;19.016;2023-02-15T12:59:53;101393.59;;;8.81;59.84
64683;BME280;51107;47.652;19.016;2023-02-15T13:02:55;101385.34;;;8.61;58.48
64683;BME280;51107;47.652;19.016;2023-02-15T13:05:37;101382.44;;;8.66;59.49
64683;BME280;51107;47.652;19.016;2023-02-15T13:08:14;101377.19;;;8.39;60.30
64683;BME280;51107;47.652;19.016;2023-02-15T13:10:54;101376.84;;;8.45;60.36
64683;BME280;51107;47.652;19.016;2023-02-15T13:13:28;101372.16;;;8.64;59.48
64683;BME280;51107;47.652;19.016;2023-02-15T13:16:11;101360.69;;;8.40;59.40
64683;BME280;51107;47.652;19.016;2023-02-15T13:18:46;101371.34;;;8.49;60.90
64683;BME280;51107;47.652;19.016;2023-02-15T13:21:24;101361.75;;;8.64;60.29
64683;BME280;51107;47.652;19.016;2023-02-15T13:24:20;101357.78;;;8.59;59.76
64683;BME280;51107;47.652;19.016;2023-02-15T13:26:52;101362.75;;;8.76;59.49
64683;BME280;51107;47.652;19.016;2023-02-15T13:29:43;101355.28;;;8.84;59.62
64683;BME280;51107;47.652;19.016;2023-02-15T13:35:00;101347.62;;;8.69;61.10
64683;BME280;51107;47.652;19.016;2023-02-15T13:43:40;101342.75;;;8.64;61.01
64683;BME280;51107;47.652;19.016;2023-02-15T13:46:31;101343.09;;;8.72;59.69
64683;BME280;51107;47.652;19.016;2023-02-15T13:51:42;101333.88;;;8.54;59.98
64683;BME280;51107;47.652;19.016;2023-02-15T13:57:25;101326.62;;;8.59;59.23
64683;BME280;51107;47.652;19.016;2023-02-15T14:02:48;101334.50;;;8.57;60.27
64683;BME280;51107;47.652;19.016;2023-02-15T14:19:12;101332.84;;;8.56;61.19
64683;BME280;51107;47.652;19.016;2023-02-15T14:24:40;101326.62;;;8.59;59.39
64683;BME280;51107;47.652;19.016;2023-02-15T14:29:57;101336.19;;;8.58;59.72
64683;BME280;51107;47.652;19.016;2023-02-15T14:32:33;101338.34;;;8.52;59.68
64683;BME280;51107;47.652;19.016;2023-02-15T14:35:05;101333.16;;;8.52;59.48
64683;BME280;51107;47.652;19.016;2023-02-15T14:37:49;101330.56;;;8.52;60.86
64683;BME280;51107;47.652;19.016;2023-02-15T14:48:52;101333.75;;;8.28;60.15
64683;BME280;51107;47.652;19.016;2023-02-15T14:54:09;101333.31;;;8.21;60.29
64683;BME280;51107;47.652;19.016;2023-02-15T14:56:38;101315.31;;;8.18;60.28
64683;BME280;51107;47.652;19.016;2023-02-15T14:59:18;101318.09;;;8.15;60.94
64683;BME280;51107;47.652;19.016;2023-02-15T15:01:55;101313.31;;;8.09;60.02
64683;BME280;51107;47.652;19.016;2023-02-15T15:07:19;101319.06;;;7.99;60.68
64683;BME280;51107;47.652;19.016;2023-02-15T15:12:53;101319.84;;;7.87;61.80
64683;BME280;51107;47.652;19.016;2023-02-15T15:20:43;101303.34;;;7.74;61.88
64683;BME280;51107;47.652;19.016;2023-02-15T15:25:55;101306.78;;;7.60;62.63
64683;BME280;51107;47.652;19.016;2023-02-15T15:45:23;101301.94;;;7.10;65.28
64683;BME280;51107;47.652;19.016;2023-02-15T15:48:22;101294.72;;;7.01;66.52
64683;BME280;51107;47.652;19.016;2023-02-15T15:50:58;101292.00;;;6.88;66.96
64683;BME280;51107;47.652;19.016;2023-02-15T15:53:29;101285.69;;;6.78;68.47
64683;BME280;51107;47.652;19.016;2023-02-15T15:56:04;101293.72;;;6.73;67.99
64683;BME280;51107;47.652;19.016;2023-02-15T15:58:34;101288.09;;;6.51;68.52
64683;BME280;51107;47.652;19.016;2023-02-15T16:01:09;101281.22;;;6.35;68.61
64683;BME280;51107;47.652;19.016;2023-02-15T16:03:51;101288.06;;;6.20;68.96
64683;BME280;51107;47.652;19.016;2023-02-15T16:06:37;101285.41;;;6.22;69.99
64683;BME280;51107;47.652;19.016;2023-02-15T16:09:17;101291.06;;;6.12;70.64
64683;BME280;51107;47.652;19.016;2023-02-15T16:11:50;101293.22;;;5.88;70.12